Time,TemperatureF,DewpointF,PressureIn,WindDirection,WindDirectionDegrees,WindSpeedMPH,WindSpeedGustMPH,Humidity,HourlyPrecipIn,Conditions,Clouds,dailyrainin,SoftwareType,DateUTC
2013-03-14 00:04:00,13.6,11.0,30.10,SW,232,0.0,0.0,88,0.00,,,0.00,weatherlink.com 1.10,2013-03-14 04:04:00,
2013-03-14 00:19:00,13.4,11.0,30.11,West,273,0.0,0.0,88,0.00,,,0.00,weatherlink.com 1.10,2013-03-14 04:19:00,
2013-03-14 00:34:00,13.1,11.0,30.11,NW,313,0.0,0.0,89,0.00,,,0.00,weatherlink.com 1.10,2013-03-14 04:34:00,
2013-03-14 00:49:00,12.8,11.0,30.10,NNW,337,0.0,0.0,90,0.00,,,0.00,weatherlink.com 1.10,2013-03-14 04:49:00,
2013-03-14 01:04:00,12.7,11.0,30.12,WNW,302,0.0,0.0,91,0.00,,,0.00,weatherlink.com 1.10,2013-03-14 05:04:00,
2013-03-14 01:19:00,12.6,10.0,30.11,WNW,286,0.0,0.0,90,0.00,,,0.00,weatherlink.com 1.10,2013-03-14 05:19:00,
2013-03-14 01:34:00,12.4,10.0,30.12,West,278,0.0,0.0,90,0.00,,,0.00,weatherlink.com 1.10,2013-03-14 05:34:00,
2013-03-14 01:49:00,12.3,10.0,30.12,SW,230,0.0,0.0,91,0.00,,,0.00,weatherlink.com 1.10,2013-03-14 05:49:00,
2013-03-14 02:04:00,12.2,10.0,30.13,SSW,211,0.0,0.0,91,0.00,,,0.00,weatherlink.com 1.10,2013-03-14 06:04:00,
2013-03-14 02:19:00,12.0,10.0,30.13,NW,309,0.0,0.0,91,0.00,,,0.00,weatherlink.com 1.10,2013-03-14 06:19:00,
2013-03-14 02:34:00,11.9,10.0,30.13,SW,227,0.0,0.0,91,0.00,,,0.00,weatherlink.com 1.10,2013-03-14 06:34:00,
2013-03-14 02:49:00,11.8,10.0,30.12,SW,224,0.0,0.0,91,0.00,,,0.00,weatherlink.com 1.10,2013-03-14 06:49:00,
2013-03-14 03:04:00,11.7,10.0,30.14,WNW,293,0.0,0.0,91,0.00,,,0.00,weatherlink.com 1.10,2013-03-14 07:04:00,
2013-03-14 03:19:00,11.6,10.0,30.13,South,184,0.0,0.0,91,0.00,,,0.00,weatherlink.com 1.10,2013-03-14 07:19:00,
2013-03-14 03:34:00,11.4,9.0,30.14,SSW,213,0.0,0.0,91,0.00,,,0.00,weatherlink.com 1.10,2013-03-14 07:34:00,
2013-03-14 03:49:00,11.3,9.0,30.14,SW,233,0.0,0.0,91,0.00,,,0.00,weatherlink.com 1.10,2013-03-14 07:49:00,
2013-03-14 04:04:00,11.3,9.0,30.13,NW,318,0.0,0.0,91,0.00,,,0.00,weatherlink.com 1.10,2013-03-14 08:04:00,
2013-03-14 04:19:00,11.3,9.0,30.13,WSW,248,0.0,0.0,91,0.00,,,0.00,weatherlink.com 1.10,2013-03-14 08:19:00,
2013-03-14 04:34:00,11.3,9.0,30.13,NW,312,0.0,0.0,91,0.00,,,0.00,weatherlink.com 1.10,2013-03-14 08:34:00,
2013-03-14 04:49:00,11.3,10.0,30.11,West,259,0.0,0.0,92,0.00,,,0.00,weatherlink.com 1.10,2013-03-14 08:49:00,
2013-03-14 05:04:00,11.3,10.0,30.13,NE,37,0.0,0.0,92,0.00,,,0.00,weatherlink.com 1.10,2013-03-14 09:04:00,
2013-03-14 05:19:00,11.3,10.0,30.14,West,280,0.0,0.0,92,0.00,,,0.00,weatherlink.com 1.10,2013-03-14 09:19:00,
2013-03-14 05:34:00,11.2,9.0,30.15,NNW,333,0.0,0.0,92,0.00,,,0.00,weatherlink.com 1.10,2013-03-14 09:34:00,
2013-03-14 05:49:00,11.0,9.0,30.15,West,259,0.0,0.0,91,0.00,,,0.00,weatherlink.com 1.10,2013-03-14 09:49:00,
2013-03-14 06:04:00,11.0,9.0,30.17,West,279,0.0,0.0,91,0.00,,,0.00,weatherlink.com 1.10,2013-03-14 10:04:00,
2013-03-14 06:19:00,10.8,9.0,30.17,NNW,333,0.0,0.0,91,0.00,,,0.00,weatherlink.com 1.10,2013-03-14 10:19:00,
2013-03-14 06:34:00,10.8,9.0,30.18,NNW,338,0.0,0.0,91,0.00,,,0.00,weatherlink.com 1.10,2013-03-14 10:34:00,
2013-03-14 06:49:00,10.8,9.0,30.19,WNW,297,0.0,0.0,91,0.00,,,0.00,weatherlink.com 1.10,2013-03-14 10:49:00,
2013-03-14 07:04:00,10.4,8.0,30.20,WSW,257,0.0,0.0,91,0.00,,,0.00,weatherlink.com 1.10,2013-03-14 11:04:00,
2013-03-14 07:19:00,10.1,8.0,30.21,WSW,242,0.0,0.0,91,0.00,,,0.00,weatherlink.com 1.10,2013-03-14 11:19:00,
2013-03-14 07:34:00,9.8,8.0,30.22,SSW,211,0.0,0.0,91,0.00,,,0.00,weatherlink.com 1.10,2013-03-14 11:34:00,
2013-03-14 07:49:00,9.8,8.0,30.24,NNW,331,0.0,0.0,91,0.00,,,0.00,weatherlink.com 1.10,2013-03-14 11:49:00,
2013-03-14 08:04:00,10.0,8.0,30.25,NW,311,0.0,0.0,91,0.00,,,0.00,weatherlink.com 1.10,2013-03-14 12:04:00,
2013-03-14 08:19:00,10.0,8.0,30.25,WSW,252,0.0,0.0,91,0.00,,,0.00,weatherlink.com 1.10,2013-03-14 12:19:00,
2013-03-14 08:35:00,10.0,8.0,30.25,NW,317,0.0,0.0,91,0.00,,,0.00,weatherlink.com 1.10,2013-03-14 12:35:00,
2013-03-14 08:50:00,10.3,8.0,30.26,NE,45,0.0,0.0,91,0.00,,,0.00,weatherlink.com 1.10,2013-03-14 12:50:00,
2013-03-14 09:05:00,10.7,9.0,30.25,South,179,0.0,0.0,91,0.00,,,0.00,weatherlink.com 1.10,2013-03-14 13:05:00,
2013-03-14 09:20:00,11.0,9.0,30.27,WSW,248,0.0,0.0,91,0.00,,,0.00,weatherlink.com 1.10,2013-03-14 13:20:00,
2013-03-14 09:35:00,11.5,9.0,30.28,NW,321,0.0,0.0,91,0.00,,,0.00,weatherlink.com 1.10,2013-03-14 13:35:00,
2013-03-14 09:50:00,12.3,10.0,30.28,West,259,0.0,0.0,90,0.00,,,0.00,weatherlink.com 1.10,2013-03-14 13:50:00,
2013-03-14 10:05:00,13.1,10.0,30.29,SW,217,0.0,0.0,88,0.00,,,0.00,weatherlink.com 1.10,2013-03-14 14:05:00,
2013-03-14 11:34:00,18.4,11.0,30.30,West,261,0.0,0.0,72,0.00,,,0.00,weatherlink.com 1.10,2013-03-14 15:34:00,
2013-03-14 11:50:00,19.1,11.0,30.32,WSW,257,0.0,0.0,71,0.00,,,0.00,weatherlink.com 1.10,2013-03-14 15:50:00,
2013-03-14 12:05:00,19.8,12.0,30.33,SSW,196,0.0,0.0,70,0.00,,,0.00,weatherlink.com 1.10,2013-03-14 16:05:00,
2013-03-14 12:20:00,21.3,13.0,30.32,SSW,212,0.0,0.0,70,0.00,,,0.00,weatherlink.com 1.10,2013-03-14 16:20:00,
2013-03-14 12:35:00,22.0,13.0,30.33,SW,221,0.0,0.0,67,0.00,,,0.00,weatherlink.com 1.10,2013-03-14 16:35:00,
2013-03-14 12:50:00,22.6,13.0,30.34,WNW,283,0.0,0.0,66,0.00,,,0.00,weatherlink.com 1.10,2013-03-14 16:50:00,
2013-03-14 13:05:00,23.0,14.0,30.34,WSW,240,0.0,0.0,67,0.00,,,0.00,weatherlink.com 1.10,2013-03-14 17:05:00,
2013-03-14 13:20:00,23.5,14.0,30.34,West,281,0.0,0.0,66,0.00,,,0.00,weatherlink.com 1.10,2013-03-14 17:20:00,
2013-03-14 13:35:00,23.6,13.0,30.34,WSW,250,0.0,0.0,65,0.00,,,0.00,weatherlink.com 1.10,2013-03-14 17:35:00,
2013-03-14 13:50:00,24.3,14.0,30.34,NW,323,0.0,0.0,65,0.00,,,0.00,weatherlink.com 1.10,2013-03-14 17:50:00,
2013-03-14 14:05:00,24.1,13.0,30.34,NW,325,0.0,0.0,62,0.00,,,0.00,weatherlink.com 1.10,2013-03-14 18:05:00,
2013-03-14 14:20:00,24.6,14.0,30.34,WNW,289,0.0,1.0,65,0.00,,,0.00,weatherlink.com 1.10,2013-03-14 18:20:00,
2013-03-14 14:35:00,25.1,12.0,30.33,West,266,4.0,14.0,57,0.00,,,0.00,weatherlink.com 1.10,2013-03-14 18:35:00,
2013-03-14 14:50:00,26.1,14.0,30.33,West,281,5.0,9.0,60,0.00,,,0.00,weatherlink.com 1.10,2013-03-14 18:50:00,
2013-03-14 15:05:00,26.1,12.0,30.32,WSW,247,0.0,13.0,56,0.00,,,0.00,weatherlink.com 1.10,2013-03-14 19:05:00,
2013-03-14 15:20:00,26.2,12.0,30.32,West,279,4.0,12.0,56,0.00,,,0.00,weatherlink.com 1.10,2013-03-14 19:20:00,
2013-03-14 15:35:00,26.2,14.0,30.32,NW,325,2.0,9.0,59,0.00,,,0.00,weatherlink.com 1.10,2013-03-14 19:35:00,
2013-03-14 15:50:00,26.4,13.0,30.32,West,273,0.0,11.0,58,0.00,,,0.00,weatherlink.com 1.10,2013-03-14 19:50:00,
2013-03-14 16:05:00,26.1,14.0,30.31,West,281,6.0,11.0,60,0.00,,,0.00,weatherlink.com 1.10,2013-03-14 20:05:00,
2013-03-14 16:20:00,26.4,14.0,30.31,NW,325,4.0,7.0,61,0.00,,,0.00,weatherlink.com 1.10,2013-03-14 20:20:00,
2013-03-14 16:35:00,26.9,14.0,30.31,WNW,283,3.0,8.0,59,0.00,,,0.00,weatherlink.com 1.10,2013-03-14 20:35:00,
2013-03-14 16:50:00,26.7,14.0,30.30,NNW,338,6.0,9.0,59,0.00,,,0.00,weatherlink.com 1.10,2013-03-14 20:50:00,
2013-03-14 17:05:00,26.1,15.0,30.30,WNW,301,7.0,9.0,62,0.00,,,0.00,weatherlink.com 1.10,2013-03-14 21:05:00,
2013-03-14 17:20:00,26.2,14.0,30.30,West,279,3.0,14.0,61,0.00,,,0.00,weatherlink.com 1.10,2013-03-14 21:20:00,
2013-03-14 17:35:00,25.7,14.0,30.29,West,259,4.0,11.0,62,0.00,,,0.00,weatherlink.com 1.10,2013-03-14 21:35:00,
2013-03-14 17:50:00,26.0,14.0,30.29,South,169,4.0,13.0,62,0.00,,,0.00,weatherlink.com 1.10,2013-03-14 21:50:00,
2013-03-14 18:06:00,25.4,15.0,30.28,NW,326,8.0,17.0,64,0.00,,,0.00,weatherlink.com 1.10,2013-03-14 22:06:00,
2013-03-14 18:21:00,25.4,14.0,30.28,WNW,291,7.0,11.0,63,0.00,,,0.00,weatherlink.com 1.10,2013-03-14 22:21:00,
2013-03-14 18:36:00,25.1,14.0,30.28,NW,319,8.0,10.0,64,0.00,,,0.00,weatherlink.com 1.10,2013-03-14 22:36:00,
2013-03-14 18:51:00,24.5,14.0,30.28,WSW,258,4.0,14.0,64,0.00,,,0.00,weatherlink.com 1.10,2013-03-14 22:51:00,
2013-03-14 19:06:00,24.1,14.0,30.28,NW,311,3.0,9.0,65,0.00,,,0.00,weatherlink.com 1.10,2013-03-14 23:06:00,
2013-03-14 19:21:00,23.6,14.0,30.28,WNW,295,3.0,11.0,67,0.00,,,0.00,weatherlink.com 1.10,2013-03-14 23:21:00,
2013-03-14 19:36:00,23.0,14.0,30.28,WSW,258,5.0,9.0,69,0.00,,,0.00,weatherlink.com 1.10,2013-03-14 23:36:00,
2013-03-14 19:51:00,22.6,14.0,30.28,NW,319,6.0,14.0,70,0.00,,,0.00,weatherlink.com 1.10,2013-03-14 23:51:00,
2013-03-14 20:06:00,22.4,15.0,30.27,WNW,302,5.0,11.0,72,0.00,,,0.00,weatherlink.com 1.10,2013-03-15 00:06:00,
2013-03-14 20:21:00,22.2,14.0,30.27,NE,46,4.0,10.0,72,0.00,,,0.00,weatherlink.com 1.10,2013-03-15 00:21:00,
2013-03-14 20:36:00,22.0,14.0,30.27,WNW,296,5.0,11.0,72,0.00,,,0.00,weatherlink.com 1.10,2013-03-15 00:36:00,
2013-03-14 20:51:00,21.9,14.0,30.27,WNW,302,3.0,12.0,72,0.00,,,0.00,weatherlink.com 1.10,2013-03-15 00:51:00,
2013-03-14 21:06:00,21.8,14.0,30.26,West,281,2.0,11.0,72,0.00,,,0.00,weatherlink.com 1.10,2013-03-15 01:06:00,
2013-03-14 21:21:00,21.7,14.0,30.26,SSW,194,4.0,13.0,73,0.00,,,0.00,weatherlink.com 1.10,2013-03-15 01:21:00,
2013-03-14 21:36:00,21.7,14.0,30.26,NW,313,6.0,17.0,73,0.00,,,0.00,weatherlink.com 1.10,2013-03-15 01:36:00,
2013-03-14 21:51:00,21.6,14.0,30.26,ENE,59,4.0,10.0,73,0.00,,,0.00,weatherlink.com 1.10,2013-03-15 01:51:00,
2013-03-14 22:06:00,21.5,14.0,30.26,East,82,5.0,13.0,72,0.00,,,0.00,weatherlink.com 1.10,2013-03-15 02:06:00,
2013-03-14 22:21:00,21.5,14.0,30.26,West,277,1.0,10.0,72,0.00,,,0.00,weatherlink.com 1.10,2013-03-15 02:21:00,
2013-03-14 22:36:00,21.6,14.0,30.26,NNW,337,6.0,14.0,72,0.00,,,0.00,weatherlink.com 1.10,2013-03-15 02:36:00,
2013-03-14 22:51:00,21.6,14.0,30.26,NNE,22,2.0,13.0,71,0.00,,,0.00,weatherlink.com 1.10,2013-03-15 02:51:00,
2013-03-14 23:06:00,21.6,14.0,30.26,NW,310,5.0,12.0,71,0.00,,,0.00,weatherlink.com 1.10,2013-03-15 03:06:00,
2013-03-14 23:21:00,21.5,13.0,30.26,WNW,302,7.0,11.0,71,0.00,,,0.00,weatherlink.com 1.10,2013-03-15 03:21:00,
2013-03-14 23:36:00,21.5,14.0,30.26,NW,320,3.0,13.0,72,0.00,,,0.00,weatherlink.com 1.10,2013-03-15 03:36:00,
2013-03-14 23:51:00,21.6,14.0,30.26,NNW,342,4.0,16.0,72,0.00,,,0.00,weatherlink.com 1.10,2013-03-15 03:51:00,